Terminal Aerodrome Forecast
Issued by NWS Duluth, MN

Home | Current Version | Previous Version | Text Only | Print | Product List | Glossary On
Versions: 1 2 3 4 5 6 7 8 9 10 11 12 13 14 15
000
FTUS43 KDLH 141132
TAFINL
TAF
KINL 141132Z 1412/1512 00000KT P6SM SCT250
     FM141900 09004KT P6SM OVC090
     FM142300 02005KT P6SM OVC050
     FM150500 35004KT P6SM -RA BKN045
     FM151000 33004KT P6SM SCT150=

USA.gov is the U.S. government's official web portal to all federal, state and local government web resources and services.